Monday, August 20, 2018, 1:15 AM EDT
Back to Local

KPSF, Pittsfield Municipal Airport

Location: Pittsfield, MA, United States Lat: 42.433
Local Time: 1:15 AM EDT ( 5:15 GMT) Lon: -73.283
Time Zone: US/Eastern Elev: 1194 ft

Show me the last for .
Show Coded

Time T Td Feel RH Dir Speed Gust Alt SLP Vis Weather Sky Remarks
2018-08-20 00:54 61 55 - 80 80° 3 - 30.15 30.09 10 CLR 24-hr Min Temp (1am): 59.0°F
24-hr Max Temp (1am): 75.9°F
2018-08-19 23:54 62 55 - 77 - Calm - 30.15 30.08 10 CLR None
2018-08-19 22:54 62 55 - 77 70° 5 - 30.14 30.07 10 CLR None
2018-08-19 21:54 64 55 - 72 90° 5 - 30.13 30.06 10 CLR None
2018-08-19 20:54 65 57 - 75 - Calm - 30.12 30.05 10 CLR None
2018-08-19 19:54 68 53 - 58 90° 3 - 30.10 30.03 10 CLR 6-hr Min Temp (8pm): 68.0°F
6-hr Max Temp (8pm): 75.9°F
2018-08-19 18:54 69 54 - 58 100° 7 - 30.08 30.02 10 CLR None
2018-08-19 17:54 71 54 76 54 100° 6 - 30.07 30.00 10 CLR None
2018-08-19 16:54 73 55 77 53 60° 7 - 30.06 29.98 10 CLR None
2018-08-19 15:54 73 54 76 51 110° 7 - 30.05 29.98 10 CLR None
2018-08-19 14:54 73 53 76 49 110° 9 - 30.05 29.97 10 CLR None
2018-08-19 13:54 74 53 77 48 60° 8 20 30.05 29.98 10 CLR 6-hr Min Temp (2pm): 64.9°F
6-hr Max Temp (2pm): 75.0°F
2018-08-19 12:54 73 53 76 49 70° 10 22 30.04 29.97 10 CLR None
2018-08-19 11:54 72 53 76 51 70° 13 21 30.05 29.97 10 CLR None
2018-08-19 10:54 71 55 76 56 70° 9 - 30.05 29.98 10 CLR None
2018-08-19 09:54 70 55 - 59 60° 6 20 30.04 29.97 10 CLR None
2018-08-19 08:54 68 56 - 65 50° 9 - 30.03 29.96 10 FEW065 None
2018-08-19 07:54 65 58 - 78 40° 7 - 30.01 29.95 10 SCT021 OVC060 24-hr Precip Total (8am): 0.09"
6-hr Min Temp (8am): 64.0°F
6-hr Max Temp (8am): 66.0°F
2018-08-19 07:41 65 58 - 78 50° 8 - 30.01 - 10 SCT022 OVC060 None
2018-08-19 07:32 65 58 - 78 60° 8 - 30.01 - 10 BKN022 OVC060 None
2018-08-19 06:54 65 58 - 78 60° 8 - 30.00 29.93 10 FEW022 OVC060 None
2018-08-19 05:54 64 57 - 77 70° 6 - 29.98 29.91 10 OVC065 None
2018-08-19 04:54 65 56 - 72 60° 9 - 29.97 29.89 10 OVC060 None
2018-08-19 04:18 65 56 - 72 70° 10 - 29.96 - 10 SCT024 OVC060 None
2018-08-19 03:54 65 56 - 72 50° 8 - 29.96 29.89 10 BKN024 OVC046 None
2018-08-19 02:54 66 57 - 72 60° 8 - 29.95 29.88 10 BKN021 OVC035 None
2018-08-19 02:47 66 57 - 72 70° 7 - 29.94 - 10 BKN021 OVC035 None
2018-08-19 02:10 66 58 - 75 60° 10 - 29.94 - 10 FEW020 SCT028 OVC035 None
2018-08-19 01:54 66 59 - 78 70° 7 - 29.94 29.87 10 FEW013 BKN026 OVC034 1-hr Precip Total: Trace
6-hr Precip Total (2am): 0.00"
6-hr Min Temp (2am): 64.9°F
6-hr Max Temp (2am): 66.0°F

Support USWX by starting your Amazon purchase here.